sensor_id;sensor_type;location;lat;lon;timestamp;P1;durP1;ratioP1;P2;durP2;ratioP2
3991;SDS011;2010;48.194;16.394;2023-04-06T00:01:24;9.20;;;4.40;;
3991;SDS011;2010;48.194;16.394;2023-04-06T00:03:52;5.70;;;4.80;;
3991;SDS011;2010;48.194;16.394;2023-04-06T00:06:23;7.57;;;4.60;;
3991;SDS011;2010;48.194;16.394;2023-04-06T00:08:55;4.83;;;4.40;;
3991;SDS011;2010;48.194;16.394;2023-04-06T00:11:24;11.17;;;4.70;;
3991;SDS011;2010;48.194;16.394;2023-04-06T00:13:55;10.60;;;5.13;;
3991;SDS011;2010;48.194;16.394;2023-04-06T00:16:28;5.70;;;4.40;;
3991;SDS011;2010;48.194;16.394;2023-04-06T00:18:59;9.70;;;4.30;;
3991;SDS011;2010;48.194;16.394;2023-04-06T00:21:31;9.20;;;5.30;;
3991;SDS011;2010;48.194;16.394;2023-04-06T00:23:59;7.10;;;5.27;;
3991;SDS011;2010;48.194;16.394;2023-04-06T00:26:28;11.90;;;5.33;;
3991;SDS011;2010;48.194;16.394;2023-04-06T00:29:03;6.90;;;5.17;;
3991;SDS011;2010;48.194;16.394;2023-04-06T00:31:32;7.50;;;5.70;;
3991;SDS011;2010;48.194;16.394;2023-04-06T00:34:03;8.83;;;5.43;;
3991;SDS011;2010;48.194;16.394;2023-04-06T00:36:32;8.70;;;4.93;;
3991;SDS011;2010;48.194;16.394;2023-04-06T00:39:04;7.10;;;5.37;;
3991;SDS011;2010;48.194;16.394;2023-04-06T00:41:36;7.17;;;5.20;;
3991;SDS011;2010;48.194;16.394;2023-04-06T00:44:09;6.17;;;5.50;;
3991;SDS011;2010;48.194;16.394;2023-04-06T00:46:38;6.60;;;5.40;;
3991;SDS011;2010;48.194;16.394;2023-04-06T00:49:09;8.13;;;5.50;;
3991;SDS011;2010;48.194;16.394;2023-04-06T00:51:37;9.10;;;5.00;;
3991;SDS011;2010;48.194;16.394;2023-04-06T00:54:07;7.60;;;5.30;;
3991;SDS011;2010;48.194;16.394;2023-04-06T00:56:36;8.83;;;5.97;;
3991;SDS011;2010;48.194;16.394;2023-04-06T00:59:05;8.97;;;6.10;;
3991;SDS011;2010;48.194;16.394;2023-04-06T01:01:38;7.63;;;5.20;;
3991;SDS011;2010;48.194;16.394;2023-04-06T01:04:32;7.43;;;4.93;;
3991;SDS011;2010;48.194;16.394;2023-04-06T01:07:24;7.07;;;5.40;;
3991;SDS011;2010;48.194;16.394;2023-04-06T01:10:21;8.93;;;6.20;;
3991;SDS011;2010;48.194;16.394;2023-04-06T01:13:14;8.80;;;5.73;;
3991;SDS011;2010;48.194;16.394;2023-04-06T01:16:11;10.87;;;6.00;;
3991;SDS011;2010;48.194;16.394;2023-04-06T01:19:21;8.17;;;6.13;;
3991;SDS011;2010;48.194;16.394;2023-04-06T01:21:54;11.83;;;6.40;;
3991;SDS011;2010;48.194;16.394;2023-04-06T01:24:43;13.73;;;6.43;;
3991;SDS011;2010;48.194;16.394;2023-04-06T01:27:39;6.43;;;5.53;;
3991;SDS011;2010;48.194;16.394;2023-04-06T01:30:10;8.37;;;6.20;;
3991;SDS011;2010;48.194;16.394;2023-04-06T01:33:07;10.93;;;5.40;;
3991;SDS011;2010;48.194;16.394;2023-04-06T01:36:03;12.07;;;6.73;;
3991;SDS011;2010;48.194;16.394;2023-04-06T01:39:04;9.10;;;6.23;;
3991;SDS011;2010;48.194;16.394;2023-04-06T01:41:45;10.30;;;6.33;;
3991;SDS011;2010;48.194;16.394;2023-04-06T01:44:25;8.80;;;6.53;;
3991;SDS011;2010;48.194;16.394;2023-04-06T01:47:07;13.90;;;6.10;;
3991;SDS011;2010;48.194;16.394;2023-04-06T01:49:36;7.50;;;4.63;;
3991;SDS011;2010;48.194;16.394;2023-04-06T01:52:06;9.13;;;6.03;;
3991;SDS011;2010;48.194;16.394;2023-04-06T01:54:41;8.77;;;5.67;;
3991;SDS011;2010;48.194;16.394;2023-04-06T01:57:40;8.33;;;5.73;;
3991;SDS011;2010;48.194;16.394;2023-04-06T02:00:31;7.43;;;5.93;;
3991;SDS011;2010;48.194;16.394;2023-04-06T02:03:01;7.40;;;4.80;;
3991;SDS011;2010;48.194;16.394;2023-04-06T02:05:33;10.83;;;5.70;;
3991;SDS011;2010;48.194;16.394;2023-04-06T02:08:21;10.50;;;6.70;;
3991;SDS011;2010;48.194;16.394;2023-04-06T02:10:54;6.47;;;5.57;;
3991;SDS011;2010;48.194;16.394;2023-04-06T02:13:33;7.67;;;5.80;;
3991;SDS011;2010;48.194;16.394;2023-04-06T02:16:06;7.53;;;5.47;;
3991;SDS011;2010;48.194;16.394;2023-04-06T02:18:45;10.60;;;6.23;;
3991;SDS011;2010;48.194;16.394;2023-04-06T02:21:15;9.93;;;5.87;;
3991;SDS011;2010;48.194;16.394;2023-04-06T02:23:47;10.43;;;5.50;;
3991;SDS011;2010;48.194;16.394;2023-04-06T02:26:18;7.67;;;5.67;;
3991;SDS011;2010;48.194;16.394;2023-04-06T02:28:50;7.60;;;5.67;;
3991;SDS011;2010;48.194;16.394;2023-04-06T02:31:24;7.40;;;6.00;;
3991;SDS011;2010;48.194;16.394;2023-04-06T02:33:58;8.67;;;5.30;;
3991;SDS011;2010;48.194;16.394;2023-04-06T02:36:30;8.10;;;5.93;;
3991;SDS011;2010;48.194;16.394;2023-04-06T02:39:08;9.80;;;5.47;;
3991;SDS011;2010;48.194;16.394;2023-04-06T02:41:39;6.63;;;5.30;;
3991;SDS011;2010;48.194;16.394;2023-04-06T02:44:21;9.57;;;6.20;;
3991;SDS011;2010;48.194;16.394;2023-04-06T02:46:53;6.33;;;5.30;;
3991;SDS011;2010;48.194;16.394;2023-04-06T02:49:28;9.20;;;5.20;;
3991;SDS011;2010;48.194;16.394;2023-04-06T02:51:58;5.80;;;5.23;;
3991;SDS011;2010;48.194;16.394;2023-04-06T02:54:31;14.50;;;5.90;;
3991;SDS011;2010;48.194;16.394;2023-04-06T02:57:02;6.63;;;5.17;;
3991;SDS011;2010;48.194;16.394;2023-04-06T02:59:45;7.80;;;5.63;;
3991;SDS011;2010;48.194;16.394;2023-04-06T03:02:32;8.17;;;5.60;;
3991;SDS011;2010;48.194;16.394;2023-04-06T03:05:08;9.63;;;6.40;;
3991;SDS011;2010;48.194;16.394;2023-04-06T03:07:47;5.90;;;5.17;;
3991;SDS011;2010;48.194;16.394;2023-04-06T03:10:43;10.90;;;6.00;;
3991;SDS011;2010;48.194;16.394;2023-04-06T03:13:15;7.83;;;6.20;;
3991;SDS011;2010;48.194;16.394;2023-04-06T03:16:09;7.60;;;5.53;;
3991;SDS011;2010;48.194;16.394;2023-04-06T03:18:41;10.63;;;6.47;;
3991;SDS011;2010;48.194;16.394;2023-04-06T03:21:16;7.30;;;4.90;;
3991;SDS011;2010;48.194;16.394;2023-04-06T03:23:50;6.77;;;5.87;;
3991;SDS011;2010;48.194;16.394;2023-04-06T03:26:22;12.10;;;5.20;;
3991;SDS011;2010;48.194;16.394;2023-04-06T03:28:52;9.23;;;5.80;;
3991;SDS011;2010;48.194;16.394;2023-04-06T03:31:32;10.03;;;6.10;;
3991;SDS011;2010;48.194;16.394;2023-04-06T03:34:31;13.97;;;6.80;;
3991;SDS011;2010;48.194;16.394;2023-04-06T03:37:09;7.30;;;5.50;;
3991;SDS011;2010;48.194;16.394;2023-04-06T03:39:47;9.00;;;5.77;;
3991;SDS011;2010;48.194;16.394;2023-04-06T03:42:23;7.27;;;5.83;;
3991;SDS011;2010;48.194;16.394;2023-04-06T03:44:58;11.93;;;6.63;;
3991;SDS011;2010;48.194;16.394;2023-04-06T03:47:45;9.83;;;6.30;;
3991;SDS011;2010;48.194;16.394;2023-04-06T03:50:18;12.67;;;5.73;;
3991;SDS011;2010;48.194;16.394;2023-04-06T03:52:47;7.90;;;5.20;;
3991;SDS011;2010;48.194;16.394;2023-04-06T03:55:17;9.43;;;5.90;;
3991;SDS011;2010;48.194;16.394;2023-04-06T03:57:47;10.43;;;5.53;;
3991;SDS011;2010;48.194;16.394;2023-04-06T04:00:19;9.97;;;5.80;;
3991;SDS011;2010;48.194;16.394;2023-04-06T04:02:59;9.67;;;6.20;;
3991;SDS011;2010;48.194;16.394;2023-04-06T04:05:33;8.60;;;5.83;;
3991;SDS011;2010;48.194;16.394;2023-04-06T04:08:05;9.67;;;6.00;;
3991;SDS011;2010;48.194;16.394;2023-04-06T04:10:38;9.13;;;5.67;;
3991;SDS011;2010;48.194;16.394;2023-04-06T04:13:08;6.77;;;5.63;;
3991;SDS011;2010;48.194;16.394;2023-04-06T04:15:37;12.93;;;6.10;;
3991;SDS011;2010;48.194;16.394;2023-04-06T04:18:10;12.00;;;5.90;;
3991;SDS011;2010;48.194;16.394;2023-04-06T04:20:39;11.00;;;6.20;;
3991;SDS011;2010;48.194;16.394;2023-04-06T04:23:13;6.53;;;5.80;;
3991;SDS011;2010;48.194;16.394;2023-04-06T04:25:46;11.17;;;6.50;;
3991;SDS011;2010;48.194;16.394;2023-04-06T04:28:15;10.77;;;5.97;;
3991;SDS011;2010;48.194;16.394;2023-04-06T04:30:48;9.73;;;6.70;;
3991;SDS011;2010;48.194;16.394;2023-04-06T04:33:19;11.53;;;6.63;;
3991;SDS011;2010;48.194;16.394;2023-04-06T04:35:50;10.37;;;6.33;;
3991;SDS011;2010;48.194;16.394;2023-04-06T04:38:33;8.40;;;6.50;;
3991;SDS011;2010;48.194;16.394;2023-04-06T04:41:10;10.67;;;7.00;;
3991;SDS011;2010;48.194;16.394;2023-04-06T04:43:49;8.30;;;6.60;;
3991;SDS011;2010;48.194;16.394;2023-04-06T04:46:23;7.97;;;6.50;;
3991;SDS011;2010;48.194;16.394;2023-04-06T04:48:58;8.80;;;6.63;;
3991;SDS011;2010;48.194;16.394;2023-04-06T04:51:29;7.47;;;6.70;;
3991;SDS011;2010;48.194;16.394;2023-04-06T04:54:29;15.13;;;7.60;;
3991;SDS011;2010;48.194;16.394;2023-04-06T04:56:59;12.63;;;7.93;;
3991;SDS011;2010;48.194;16.394;2023-04-06T04:59:39;10.47;;;7.50;;
3991;SDS011;2010;48.194;16.394;2023-04-06T05:02:16;12.10;;;8.00;;
3991;SDS011;2010;48.194;16.394;2023-04-06T05:05:29;8.67;;;7.03;;
3991;SDS011;2010;48.194;16.394;2023-04-06T05:07:59;8.23;;;7.33;;
3991;SDS011;2010;48.194;16.394;2023-04-06T05:10:43;15.33;;;8.47;;
3991;SDS011;2010;48.194;16.394;2023-04-06T05:13:17;11.50;;;8.40;;
3991;SDS011;2010;48.194;16.394;2023-04-06T05:15:50;16.70;;;9.63;;
3991;SDS011;2010;48.194;16.394;2023-04-06T05:18:32;13.43;;;8.17;;
3991;SDS011;2010;48.194;16.394;2023-04-06T05:21:12;9.33;;;7.80;;
3991;SDS011;2010;48.194;16.394;2023-04-06T05:24:13;9.70;;;6.90;;
3991;SDS011;2010;48.194;16.394;2023-04-06T05:26:46;10.23;;;6.83;;
3991;SDS011;2010;48.194;16.394;2023-04-06T05:29:23;7.87;;;6.43;;
3991;SDS011;2010;48.194;16.394;2023-04-06T05:31:56;12.83;;;7.23;;
3991;SDS011;2010;48.194;16.394;2023-04-06T05:34:25;10.40;;;7.97;;
3991;SDS011;2010;48.194;16.394;2023-04-06T05:36:59;8.20;;;6.40;;
3991;SDS011;2010;48.194;16.394;2023-04-06T05:39:29;9.10;;;7.13;;
3991;SDS011;2010;48.194;16.394;2023-04-06T05:42:02;9.17;;;7.00;;
3991;SDS011;2010;48.194;16.394;2023-04-06T05:44:58;9.43;;;7.30;;
3991;SDS011;2010;48.194;16.394;2023-04-06T05:47:30;10.43;;;6.87;;
3991;SDS011;2010;48.194;16.394;2023-04-06T05:50:11;9.87;;;7.10;;
3991;SDS011;2010;48.194;16.394;2023-04-06T05:52:45;8.90;;;6.70;;
3991;SDS011;2010;48.194;16.394;2023-04-06T05:55:18;10.97;;;7.10;;
3991;SDS011;2010;48.194;16.394;2023-04-06T05:57:58;9.07;;;7.20;;
3991;SDS011;2010;48.194;16.394;2023-04-06T06:00:35;8.40;;;6.50;;
3991;SDS011;2010;48.194;16.394;2023-04-06T06:03:09;8.93;;;6.60;;
3991;SDS011;2010;48.194;16.394;2023-04-06T06:05:41;10.67;;;7.00;;
3991;SDS011;2010;48.194;16.394;2023-04-06T06:08:18;10.77;;;7.40;;
3991;SDS011;2010;48.194;16.394;2023-04-06T06:10:55;8.20;;;6.50;;
3991;SDS011;2010;48.194;16.394;2023-04-06T06:13:24;10.30;;;7.60;;
3991;SDS011;2010;48.194;16.394;2023-04-06T06:15:57;8.37;;;7.30;;
3991;SDS011;2010;48.194;16.394;2023-04-06T06:18:27;14.53;;;7.60;;
3991;SDS011;2010;48.194;16.394;2023-04-06T06:20:58;8.10;;;6.63;;
3991;SDS011;2010;48.194;16.394;2023-04-06T06:23:33;9.07;;;7.00;;
3991;SDS011;2010;48.194;16.394;2023-04-06T06:26:07;9.23;;;7.10;;
3991;SDS011;2010;48.194;16.394;2023-04-06T06:28:46;7.77;;;6.97;;
3991;SDS011;2010;48.194;16.394;2023-04-06T06:31:23;11.67;;;7.43;;
3991;SDS011;2010;48.194;16.394;2023-04-06T06:33:55;15.97;;;8.10;;
3991;SDS011;2010;48.194;16.394;2023-04-06T06:36:25;13.23;;;9.73;;
3991;SDS011;2010;48.194;16.394;2023-04-06T06:39:03;12.10;;;8.40;;
3991;SDS011;2010;48.194;16.394;2023-04-06T06:41:33;9.00;;;6.63;;
3991;SDS011;2010;48.194;16.394;2023-04-06T06:44:03;11.00;;;7.87;;
3991;SDS011;2010;48.194;16.394;2023-04-06T06:46:34;9.70;;;7.30;;
3991;SDS011;2010;48.194;16.394;2023-04-06T06:49:11;9.23;;;7.37;;
3991;SDS011;2010;48.194;16.394;2023-04-06T06:51:41;11.13;;;7.20;;
3991;SDS011;2010;48.194;16.394;2023-04-06T06:54:12;11.77;;;7.20;;
3991;SDS011;2010;48.194;16.394;2023-04-06T06:56:48;8.87;;;6.70;;
3991;SDS011;2010;48.194;16.394;2023-04-06T06:59:17;14.00;;;8.20;;
3991;SDS011;2010;48.194;16.394;2023-04-06T07:01:50;11.07;;;7.53;;
3991;SDS011;2010;48.194;16.394;2023-04-06T07:04:29;11.20;;;7.90;;
3991;SDS011;2010;48.194;16.394;2023-04-06T07:06:59;14.63;;;8.40;;
3991;SDS011;2010;48.194;16.394;2023-04-06T07:09:35;13.07;;;7.07;;
3991;SDS011;2010;48.194;16.394;2023-04-06T07:12:08;9.80;;;8.13;;
3991;SDS011;2010;48.194;16.394;2023-04-06T07:14:36;13.93;;;9.87;;
3991;SDS011;2010;48.194;16.394;2023-04-06T07:17:08;8.40;;;7.17;;
3991;SDS011;2010;48.194;16.394;2023-04-06T07:19:44;10.23;;;7.30;;
3991;SDS011;2010;48.194;16.394;2023-04-06T07:22:20;12.13;;;7.67;;
3991;SDS011;2010;48.194;16.394;2023-04-06T07:24:54;13.97;;;7.60;;
3991;SDS011;2010;48.194;16.394;2023-04-06T07:27:26;11.20;;;6.70;;
3991;SDS011;2010;48.194;16.394;2023-04-06T07:29:56;11.87;;;6.90;;
3991;SDS011;2010;48.194;16.394;2023-04-06T07:32:26;13.03;;;7.97;;
3991;SDS011;2010;48.194;16.394;2023-04-06T07:35:00;10.33;;;6.50;;
3991;SDS011;2010;48.194;16.394;2023-04-06T07:37:28;7.67;;;6.00;;
3991;SDS011;2010;48.194;16.394;2023-04-06T07:40:05;12.47;;;6.13;;
3991;SDS011;2010;48.194;16.394;2023-04-06T07:42:34;8.40;;;6.60;;
3991;SDS011;2010;48.194;16.394;2023-04-06T07:45:08;6.93;;;5.67;;
3991;SDS011;2010;48.194;16.394;2023-04-06T07:47:39;7.13;;;5.10;;
3991;SDS011;2010;48.194;16.394;2023-04-06T07:50:08;8.77;;;5.60;;
3991;SDS011;2010;48.194;16.394;2023-04-06T07:52:39;8.00;;;5.03;;
3991;SDS011;2010;48.194;16.394;2023-04-06T07:55:23;6.00;;;4.90;;
3991;SDS011;2010;48.194;16.394;2023-04-06T07:57:54;6.70;;;5.23;;
3991;SDS011;2010;48.194;16.394;2023-04-06T08:00:24;9.77;;;5.73;;
3991;SDS011;2010;48.194;16.394;2023-04-06T08:02:55;7.40;;;4.90;;
3991;SDS011;2010;48.194;16.394;2023-04-06T08:05:25;8.37;;;5.07;;
3991;SDS011;2010;48.194;16.394;2023-04-06T08:08:03;5.63;;;4.20;;
3991;SDS011;2010;48.194;16.394;2023-04-06T08:10:36;5.67;;;4.40;;
3991;SDS011;2010;48.194;16.394;2023-04-06T08:13:08;4.30;;;3.90;;
3991;SDS011;2010;48.194;16.394;2023-04-06T08:15:40;6.73;;;4.93;;
3991;SDS011;2010;48.194;16.394;2023-04-06T08:18:13;6.53;;;4.13;;
3991;SDS011;2010;48.194;16.394;2023-04-06T08:20:42;7.00;;;4.37;;
3991;SDS011;2010;48.194;16.394;2023-04-06T08:23:15;5.83;;;4.07;;
3991;SDS011;2010;48.194;16.394;2023-04-06T08:25:49;6.80;;;4.50;;
3991;SDS011;2010;48.194;16.394;2023-04-06T08:28:22;7.53;;;4.67;;
3991;SDS011;2010;48.194;16.394;2023-04-06T08:30:52;8.50;;;4.67;;
3991;SDS011;2010;48.194;16.394;2023-04-06T08:33:24;7.90;;;4.87;;
3991;SDS011;2010;48.194;16.394;2023-04-06T08:35:59;6.27;;;4.57;;
3991;SDS011;2010;48.194;16.394;2023-04-06T08:38:30;6.33;;;4.33;;
3991;SDS011;2010;48.194;16.394;2023-04-06T08:41:11;5.17;;;4.40;;
3991;SDS011;2010;48.194;16.394;2023-04-06T08:43:49;7.33;;;4.57;;
3991;SDS011;2010;48.194;16.394;2023-04-06T08:46:28;6.67;;;4.60;;
3991;SDS011;2010;48.194;16.394;2023-04-06T08:49:07;6.33;;;4.57;;
3991;SDS011;2010;48.194;16.394;2023-04-06T08:51:48;5.03;;;4.40;;
3991;SDS011;2010;48.194;16.394;2023-04-06T08:54:17;5.87;;;4.40;;
3991;SDS011;2010;48.194;16.394;2023-04-06T08:56:48;13.37;;;4.73;;
3991;SDS011;2010;48.194;16.394;2023-04-06T08:59:17;6.17;;;4.50;;
3991;SDS011;2010;48.194;16.394;2023-04-06T09:01:50;7.03;;;4.80;;
3991;SDS011;2010;48.194;16.394;2023-04-06T09:04:27;10.40;;;5.33;;
3991;SDS011;2010;48.194;16.394;2023-04-06T09:06:58;8.97;;;5.33;;
3991;SDS011;2010;48.194;16.394;2023-04-06T09:09:37;10.13;;;5.37;;
3991;SDS011;2010;48.194;16.394;2023-04-06T09:12:21;7.47;;;4.90;;
3991;SDS011;2010;48.194;16.394;2023-04-06T09:14:53;10.47;;;5.00;;
3991;SDS011;2010;48.194;16.394;2023-04-06T09:17:27;10.20;;;5.73;;
3991;SDS011;2010;48.194;16.394;2023-04-06T09:20:02;6.37;;;5.50;;
3991;SDS011;2010;48.194;16.394;2023-04-06T09:22:38;7.27;;;5.50;;
3991;SDS011;2010;48.194;16.394;2023-04-06T09:25:18;7.10;;;4.30;;
3991;SDS011;2010;48.194;16.394;2023-04-06T09:28:05;6.33;;;4.53;;
3991;SDS011;2010;48.194;16.394;2023-04-06T09:30:34;5.33;;;4.40;;
3991;SDS011;2010;48.194;16.394;2023-04-06T09:33:06;6.60;;;4.30;;
3991;SDS011;2010;48.194;16.394;2023-04-06T09:35:39;5.83;;;3.50;;
3991;SDS011;2010;48.194;16.394;2023-04-06T09:38:10;4.43;;;4.03;;
3991;SDS011;2010;48.194;16.394;2023-04-06T09:40:50;4.60;;;4.00;;
3991;SDS011;2010;48.194;16.394;2023-04-06T09:43:40;7.40;;;4.23;;
3991;SDS011;2010;48.194;16.394;2023-04-06T09:46:10;5.00;;;3.57;;
3991;SDS011;2010;48.194;16.394;2023-04-06T09:48:40;5.57;;;4.03;;
3991;SDS011;2010;48.194;16.394;2023-04-06T09:51:09;7.73;;;3.60;;
3991;SDS011;2010;48.194;16.394;2023-04-06T09:53:41;3.73;;;3.43;;
3991;SDS011;2010;48.194;16.394;2023-04-06T09:56:16;3.43;;;3.03;;
3991;SDS011;2010;48.194;16.394;2023-04-06T09:58:56;6.90;;;4.07;;
3991;SDS011;2010;48.194;16.394;2023-04-06T10:01:33;4.87;;;3.93;;
3991;SDS011;2010;48.194;16.394;2023-04-06T10:04:07;4.90;;;3.97;;
3991;SDS011;2010;48.194;16.394;2023-04-06T10:06:47;3.57;;;3.20;;
3991;SDS011;2010;48.194;16.394;2023-04-06T10:09:21;4.43;;;3.27;;
3991;SDS011;2010;48.194;16.394;2023-04-06T10:11:54;3.07;;;2.80;;
3991;SDS011;2010;48.194;16.394;2023-04-06T10:14:25;3.17;;;2.87;;
3991;SDS011;2010;48.194;16.394;2023-04-06T10:17:05;2.90;;;2.43;;
3991;SDS011;2010;48.194;16.394;2023-04-06T10:19:36;4.07;;;3.40;;
3991;SDS011;2010;48.194;16.394;2023-04-06T10:22:12;4.10;;;2.63;;
3991;SDS011;2010;48.194;16.394;2023-04-06T10:24:48;2.80;;;2.50;;
3991;SDS011;2010;48.194;16.394;2023-04-06T10:27:29;2.60;;;2.40;;
3991;SDS011;2010;48.194;16.394;2023-04-06T10:30:06;4.43;;;2.67;;
3991;SDS011;2010;48.194;16.394;2023-04-06T10:32:43;3.60;;;2.97;;
3991;SDS011;2010;48.194;16.394;2023-04-06T10:35:15;4.80;;;2.93;;
3991;SDS011;2010;48.194;16.394;2023-04-06T10:37:47;6.03;;;2.80;;
3991;SDS011;2010;48.194;16.394;2023-04-06T10:40:18;2.93;;;2.63;;
3991;SDS011;2010;48.194;16.394;2023-04-06T10:42:53;3.50;;;3.20;;
3991;SDS011;2010;48.194;16.394;2023-04-06T10:45:26;3.63;;;2.70;;
3991;SDS011;2010;48.194;16.394;2023-04-06T10:48:00;5.60;;;3.07;;
3991;SDS011;2010;48.194;16.394;2023-04-06T10:50:48;6.13;;;2.90;;
3991;SDS011;2010;48.194;16.394;2023-04-06T10:53:21;3.23;;;3.00;;
3991;SDS011;2010;48.194;16.394;2023-04-06T10:55:52;3.83;;;3.30;;
3991;SDS011;2010;48.194;16.394;2023-04-06T10:58:33;3.53;;;3.27;;
3991;SDS011;2010;48.194;16.394;2023-04-06T11:01:11;3.30;;;3.07;;
3991;SDS011;2010;48.194;16.394;2023-04-06T11:03:47;3.33;;;2.93;;
3991;SDS011;2010;48.194;16.394;2023-04-06T11:06:21;3.93;;;3.20;;
3991;SDS011;2010;48.194;16.394;2023-04-06T11:08:54;3.33;;;3.03;;
3991;SDS011;2010;48.194;16.394;2023-04-06T11:11:33;4.17;;;2.87;;
3991;SDS011;2010;48.194;16.394;2023-04-06T11:14:10;6.00;;;3.00;;
3991;SDS011;2010;48.194;16.394;2023-04-06T11:16:45;3.47;;;2.63;;
3991;SDS011;2010;48.194;16.394;2023-04-06T11:19:18;3.20;;;2.90;;
3991;SDS011;2010;48.194;16.394;2023-04-06T11:21:46;4.70;;;3.00;;
3991;SDS011;2010;48.194;16.394;2023-04-06T11:24:17;4.93;;;2.50;;
3991;SDS011;2010;48.194;16.394;2023-04-06T11:26:48;3.80;;;3.20;;
3991;SDS011;2010;48.194;16.394;2023-04-06T11:29:22;11.17;;;3.17;;
3991;SDS011;2010;48.194;16.394;2023-04-06T11:32:05;4.03;;;3.63;;
3991;SDS011;2010;48.194;16.394;2023-04-06T11:34:35;3.03;;;2.73;;
3991;SDS011;2010;48.194;16.394;2023-04-06T11:37:13;2.87;;;2.57;;
3991;SDS011;2010;48.194;16.394;2023-04-06T11:39:47;3.87;;;2.90;;
3991;SDS011;2010;48.194;16.394;2023-04-06T11:42:22;5.23;;;3.30;;
3991;SDS011;2010;48.194;16.394;2023-04-06T11:44:53;3.20;;;3.00;;
3991;SDS011;2010;48.194;16.394;2023-04-06T11:47:32;6.40;;;3.50;;
3991;SDS011;2010;48.194;16.394;2023-04-06T11:50:06;3.57;;;2.60;;
3991;SDS011;2010;48.194;16.394;2023-04-06T11:52:39;3.80;;;3.10;;
3991;SDS011;2010;48.194;16.394;2023-04-06T11:55:12;5.40;;;2.57;;
3991;SDS011;2010;48.194;16.394;2023-04-06T11:57:46;3.97;;;3.10;;
3991;SDS011;2010;48.194;16.394;2023-04-06T12:00:22;5.80;;;2.90;;
3991;SDS011;2010;48.194;16.394;2023-04-06T12:03:01;2.90;;;2.70;;
3991;SDS011;2010;48.194;16.394;2023-04-06T12:05:37;5.90;;;2.63;;
3991;SDS011;2010;48.194;16.394;2023-04-06T12:08:08;3.90;;;2.70;;
3991;SDS011;2010;48.194;16.394;2023-04-06T12:10:38;3.63;;;2.93;;
3991;SDS011;2010;48.194;16.394;2023-04-06T12:13:09;5.23;;;3.03;;
3991;SDS011;2010;48.194;16.394;2023-04-06T12:15:39;5.70;;;2.70;;
3991;SDS011;2010;48.194;16.394;2023-04-06T12:18:16;2.63;;;2.43;;
3991;SDS011;2010;48.194;16.394;2023-04-06T12:20:46;2.60;;;2.50;;
3991;SDS011;2010;48.194;16.394;2023-04-06T12:23:15;3.80;;;2.70;;
3991;SDS011;2010;48.194;16.394;2023-04-06T12:25:47;3.77;;;2.73;;
3991;SDS011;2010;48.194;16.394;2023-04-06T12:28:19;2.93;;;2.70;;
3991;SDS011;2010;48.194;16.394;2023-04-06T12:30:51;3.70;;;2.37;;
3991;SDS011;2010;48.194;16.394;2023-04-06T12:33:26;2.37;;;2.27;;
3991;SDS011;2010;48.194;16.394;2023-04-06T12:35:57;2.77;;;2.47;;
3991;SDS011;2010;48.194;16.394;2023-04-06T12:38:26;2.97;;;2.77;;
3991;SDS011;2010;48.194;16.394;2023-04-06T12:40:58;2.63;;;2.43;;
3991;SDS011;2010;48.194;16.394;2023-04-06T12:43:27;3.00;;;2.70;;
3991;SDS011;2010;48.194;16.394;2023-04-06T12:45:59;2.87;;;2.67;;
3991;SDS011;2010;48.194;16.394;2023-04-06T12:48:31;4.03;;;2.73;;
3991;SDS011;2010;48.194;16.394;2023-04-06T12:51:05;2.43;;;2.10;;
3991;SDS011;2010;48.194;16.394;2023-04-06T12:53:35;3.00;;;2.57;;
3991;SDS011;2010;48.194;16.394;2023-04-06T12:56:12;2.40;;;2.30;;
3991;SDS011;2010;48.194;16.394;2023-04-06T12:58:49;2.30;;;2.10;;
3991;SDS011;2010;48.194;16.394;2023-04-06T13:01:19;2.07;;;1.97;;
3991;SDS011;2010;48.194;16.394;2023-04-06T13:03:55;6.00;;;2.23;;
3991;SDS011;2010;48.194;16.394;2023-04-06T13:06:25;2.60;;;2.40;;
3991;SDS011;2010;48.194;16.394;2023-04-06T13:08:54;4.97;;;2.63;;
3991;SDS011;2010;48.194;16.394;2023-04-06T13:11:26;3.60;;;2.80;;
3991;SDS011;2010;48.194;16.394;2023-04-06T13:13:58;3.37;;;2.10;;
3991;SDS011;2010;48.194;16.394;2023-04-06T13:16:26;3.13;;;2.90;;
3991;SDS011;2010;48.194;16.394;2023-04-06T13:19:09;4.23;;;3.03;;
3991;SDS011;2010;48.194;16.394;2023-04-06T13:21:40;4.60;;;2.50;;
3991;SDS011;2010;48.194;16.394;2023-04-06T13:24:11;4.20;;;2.73;;
3991;SDS011;2010;48.194;16.394;2023-04-06T13:26:47;2.90;;;2.50;;
3991;SDS011;2010;48.194;16.394;2023-04-06T13:29:17;2.83;;;2.20;;
3991;SDS011;2010;48.194;16.394;2023-04-06T13:31:48;3.80;;;2.40;;
3991;SDS011;2010;48.194;16.394;2023-04-06T13:34:32;4.80;;;2.43;;
3991;SDS011;2010;48.194;16.394;2023-04-06T13:37:05;2.80;;;2.20;;
3991;SDS011;2010;48.194;16.394;2023-04-06T13:39:35;3.13;;;2.70;;
3991;SDS011;2010;48.194;16.394;2023-04-06T13:42:14;3.50;;;2.30;;
3991;SDS011;2010;48.194;16.394;2023-04-06T13:44:45;2.50;;;2.30;;
3991;SDS011;2010;48.194;16.394;2023-04-06T13:47:14;3.27;;;2.50;;
3991;SDS011;2010;48.194;16.394;2023-04-06T13:49:45;3.60;;;2.90;;
3991;SDS011;2010;48.194;16.394;2023-04-06T13:52:14;3.03;;;2.73;;
3991;SDS011;2010;48.194;16.394;2023-04-06T13:54:48;3.50;;;2.70;;
3991;SDS011;2010;48.194;16.394;2023-04-06T13:57:17;2.27;;;2.07;;
3991;SDS011;2010;48.194;16.394;2023-04-06T13:59:49;5.03;;;3.30;;
3991;SDS011;2010;48.194;16.394;2023-04-06T14:02:22;2.60;;;2.40;;
3991;SDS011;2010;48.194;16.394;2023-04-06T14:04:56;7.03;;;2.27;;
3991;SDS011;2010;48.194;16.394;2023-04-06T14:07:24;3.03;;;2.73;;
3991;SDS011;2010;48.194;16.394;2023-04-06T14:09:54;7.10;;;2.87;;
3991;SDS011;2010;48.194;16.394;2023-04-06T14:12:22;4.10;;;3.00;;
3991;SDS011;2010;48.194;16.394;2023-04-06T14:14:53;3.50;;;3.17;;
3991;SDS011;2010;48.194;16.394;2023-04-06T14:17:21;2.70;;;2.50;;
3991;SDS011;2010;48.194;16.394;2023-04-06T14:19:51;3.20;;;2.90;;
3991;SDS011;2010;48.194;16.394;2023-04-06T14:22:23;4.50;;;3.40;;
3991;SDS011;2010;48.194;16.394;2023-04-06T14:24:52;3.17;;;2.80;;
3991;SDS011;2010;48.194;16.394;2023-04-06T14:27:21;4.07;;;2.67;;
3991;SDS011;2010;48.194;16.394;2023-04-06T14:29:55;3.50;;;2.70;;
3991;SDS011;2010;48.194;16.394;2023-04-06T14:32:31;3.90;;;3.60;;
3991;SDS011;2010;48.194;16.394;2023-04-06T14:35:04;4.30;;;3.90;;
3991;SDS011;2010;48.194;16.394;2023-04-06T14:37:39;9.10;;;3.27;;
3991;SDS011;2010;48.194;16.394;2023-04-06T14:40:09;6.57;;;3.97;;
3991;SDS011;2010;48.194;16.394;2023-04-06T14:42:44;4.60;;;3.60;;
3991;SDS011;2010;48.194;16.394;2023-04-06T14:45:13;4.37;;;3.97;;
3991;SDS011;2010;48.194;16.394;2023-04-06T14:47:44;7.13;;;3.80;;
3991;SDS011;2010;48.194;16.394;2023-04-06T14:50:16;3.50;;;3.20;;
3991;SDS011;2010;48.194;16.394;2023-04-06T14:52:48;4.10;;;3.30;;
3991;SDS011;2010;48.194;16.394;2023-04-06T14:55:18;4.83;;;4.40;;
3991;SDS011;2010;48.194;16.394;2023-04-06T14:57:48;4.00;;;3.70;;
3991;SDS011;2010;48.194;16.394;2023-04-06T15:00:20;4.50;;;3.97;;
3991;SDS011;2010;48.194;16.394;2023-04-06T15:02:49;4.20;;;3.90;;
3991;SDS011;2010;48.194;16.394;2023-04-06T15:05:19;6.33;;;4.00;;
3991;SDS011;2010;48.194;16.394;2023-04-06T15:07:49;5.33;;;4.20;;
3991;SDS011;2010;48.194;16.394;2023-04-06T15:10:18;4.63;;;4.10;;
3991;SDS011;2010;48.194;16.394;2023-04-06T15:12:47;4.43;;;4.07;;
3991;SDS011;2010;48.194;16.394;2023-04-06T15:15:17;4.50;;;4.10;;
3991;SDS011;2010;48.194;16.394;2023-04-06T15:17:47;5.10;;;3.97;;
3991;SDS011;2010;48.194;16.394;2023-04-06T15:20:22;4.77;;;4.10;;
3991;SDS011;2010;48.194;16.394;2023-04-06T15:22:55;4.23;;;3.83;;
3991;SDS011;2010;48.194;16.394;2023-04-06T15:25:32;5.20;;;4.20;;
3991;SDS011;2010;48.194;16.394;2023-04-06T15:28:01;3.80;;;3.50;;
3991;SDS011;2010;48.194;16.394;2023-04-06T15:30:30;5.07;;;4.50;;
3991;SDS011;2010;48.194;16.394;2023-04-06T15:32:59;5.30;;;4.23;;
3991;SDS011;2010;48.194;16.394;2023-04-06T15:35:32;3.63;;;3.30;;
3991;SDS011;2010;48.194;16.394;2023-04-06T15:38:16;4.67;;;3.97;;
3991;SDS011;2010;48.194;16.394;2023-04-06T15:40:49;4.27;;;3.90;;
3991;SDS011;2010;48.194;16.394;2023-04-06T15:43:25;4.57;;;4.07;;